createdAt,value
2024-03-12T00:01:45.011Z,5.28
2024-03-12T00:04:12.602Z,4.80
2024-03-12T00:06:39.767Z,5.20
2024-03-12T00:09:11.000Z,4.78
2024-03-12T00:11:39.184Z,5.23
2024-03-12T00:14:06.543Z,4.85
2024-03-12T00:16:35.489Z,5.28
2024-03-12T00:19:04.068Z,4.90
2024-03-12T00:21:31.781Z,6.68
2024-03-12T00:24:00.288Z,8.10
2024-03-12T00:26:29.667Z,4.88
2024-03-12T00:28:57.095Z,4.68
2024-03-12T00:31:25.964Z,5.00
2024-03-12T00:33:53.526Z,4.80
2024-03-12T00:36:20.517Z,6.07
2024-03-12T00:38:48.207Z,6.35
2024-03-12T00:41:15.551Z,8.82
2024-03-12T00:43:43.927Z,6.55
2024-03-12T00:46:12.599Z,5.60
2024-03-12T00:48:40.513Z,7.00
2024-03-12T00:51:10.285Z,5.78
2024-03-12T00:53:37.652Z,5.60
2024-03-12T00:56:04.974Z,5.38
2024-03-12T00:58:34.561Z,7.07
2024-03-12T01:01:02.106Z,5.40
2024-03-12T01:03:30.648Z,5.07
2024-03-12T01:05:57.858Z,4.65
2024-03-12T01:08:25.189Z,5.90
2024-03-12T01:10:52.692Z,5.25
2024-03-12T01:13:20.019Z,5.07
2024-03-12T01:15:47.188Z,4.72
2024-03-12T01:18:14.572Z,3.78
2024-03-12T01:20:41.543Z,4.07
2024-03-12T01:23:08.929Z,3.92
2024-03-12T01:25:37.969Z,4.47
2024-03-12T01:28:08.192Z,4.55
2024-03-12T01:30:36.720Z,3.80
2024-03-12T01:33:07.507Z,4.95
2024-03-12T01:35:40.877Z,3.67
2024-03-12T01:38:11.876Z,4.32
2024-03-12T01:40:40.636Z,4.10
2024-03-12T01:43:09.194Z,4.40
2024-03-12T01:45:37.450Z,4.18
2024-03-12T01:48:11.440Z,5.18
2024-03-12T01:50:40.977Z,5.22
2024-03-12T01:53:09.770Z,5.03
2024-03-12T01:55:45.524Z,4.60
2024-03-12T01:58:17.231Z,5.35
2024-03-12T02:00:46.246Z,5.78
2024-03-12T02:03:14.137Z,4.35
2024-03-12T02:05:43.359Z,5.80
2024-03-12T02:08:12.060Z,5.22
2024-03-12T02:10:39.071Z,5.57
2024-03-12T02:13:06.647Z,7.65
2024-03-12T02:15:35.692Z,5.30
2024-03-12T02:18:03.348Z,5.80
2024-03-12T02:20:30.360Z,6.97
2024-03-12T02:22:57.708Z,7.43
2024-03-12T02:25:25.174Z,6.80
2024-03-12T02:27:54.118Z,7.40
2024-03-12T02:30:22.498Z,7.33
2024-03-12T02:32:50.647Z,7.57
2024-03-12T02:35:18.466Z,8.25
2024-03-12T02:37:46.515Z,9.65
2024-03-12T02:40:15.226Z,6.53
2024-03-12T02:42:43.974Z,6.07
2024-03-12T02:45:16.910Z,5.82
2024-03-12T02:47:47.251Z,7.80
2024-03-12T02:50:15.397Z,5.68
2024-03-12T02:52:43.658Z,5.63
2024-03-12T02:55:10.971Z,5.27
2024-03-12T02:57:38.751Z,7.38
2024-03-12T03:00:16.245Z,5.68
2024-03-12T03:02:45.595Z,4.90
2024-03-12T03:05:13.802Z,4.45
2024-03-12T03:07:42.214Z,5.33
2024-03-12T03:10:11.944Z,5.20
2024-03-12T03:12:40.986Z,5.53
2024-03-12T03:15:10.678Z,5.05
2024-03-12T03:17:37.994Z,3.83
2024-03-12T03:20:06.587Z,4.73
2024-03-12T03:22:34.049Z,4.57
2024-03-12T03:25:01.651Z,4.32
2024-03-12T03:27:29.683Z,4.28
2024-03-12T03:29:58.388Z,5.07
2024-03-12T03:32:26.196Z,5.73
2024-03-12T03:34:56.638Z,4.60
2024-03-12T03:37:23.978Z,5.72
2024-03-12T03:39:51.062Z,4.40
2024-03-12T03:42:18.420Z,6.10
2024-03-12T03:44:45.357Z,7.10
2024-03-12T03:47:12.617Z,5.68
2024-03-12T03:49:39.710Z,5.78
2024-03-12T03:52:07.412Z,7.57
2024-03-12T03:54:34.547Z,4.53
2024-03-12T03:57:01.852Z,5.00
2024-03-12T03:59:29.024Z,5.78
2024-03-12T04:01:56.661Z,4.75
2024-03-12T04:04:24.252Z,5.68
2024-03-12T04:06:55.203Z,4.60
2024-03-12T04:09:22.535Z,4.77
2024-03-12T04:11:50.290Z,4.43
2024-03-12T04:14:19.468Z,4.95
2024-03-12T04:16:47.121Z,5.10
2024-03-12T04:19:15.159Z,6.43
2024-03-12T04:21:45.389Z,4.57
2024-03-12T04:24:15.182Z,4.22
2024-03-12T04:26:46.804Z,6.03
2024-03-12T04:29:13.907Z,5.45
2024-03-12T04:31:41.530Z,6.85
2024-03-12T04:34:10.328Z,5.67
2024-03-12T04:36:38.272Z,9.80
2024-03-12T04:39:24.321Z,7.40
2024-03-12T04:41:52.360Z,6.03
2024-03-12T04:44:19.403Z,7.13
2024-03-12T04:46:46.860Z,6.33
2024-03-12T04:49:13.868Z,6.07
2024-03-12T04:51:42.003Z,5.65
2024-03-12T04:54:09.038Z,7.35
2024-03-12T04:56:36.702Z,5.90
2024-03-12T04:59:04.383Z,5.50
2024-03-12T05:01:32.046Z,6.10
2024-03-12T05:04:04.393Z,7.18
2024-03-12T05:06:35.631Z,6.30
2024-03-12T05:09:02.612Z,6.95
2024-03-12T05:11:29.964Z,5.50
2024-03-12T05:13:57.123Z,5.38
2024-03-12T05:16:28.445Z,5.40
2024-03-12T05:18:55.796Z,5.53
2024-03-12T05:21:23.148Z,5.32
2024-03-12T05:23:50.195Z,6.23
2024-03-12T05:26:21.400Z,5.28
2024-03-12T05:28:48.472Z,7.30
2024-03-12T05:31:23.352Z,13.30
2024-03-12T05:33:50.433Z,12.30
2024-03-12T05:36:21.593Z,9.17
2024-03-12T05:39:05.728Z,13.18
2024-03-12T05:41:50.373Z,10.15
2024-03-12T05:44:36.156Z,9.82
2024-03-12T05:47:29.463Z,8.75
2024-03-12T05:49:58.316Z,6.60
2024-03-12T05:52:27.046Z,7.28
2024-03-12T05:54:54.024Z,6.65
2024-03-12T05:57:21.354Z,6.70
2024-03-12T05:59:48.349Z,7.53
2024-03-12T06:02:15.673Z,7.60
2024-03-12T06:04:42.913Z,12.90
2024-03-12T06:07:10.442Z,10.63
2024-03-12T06:09:37.467Z,9.23
2024-03-12T06:12:05.189Z,10.20
2024-03-12T06:14:33.414Z,11.47
2024-03-12T06:17:00.742Z,11.20
2024-03-12T06:19:27.785Z,10.73
2024-03-12T06:21:55.138Z,8.95
2024-03-12T06:24:22.254Z,9.93
2024-03-12T06:26:52.263Z,14.50
2024-03-12T06:29:22.376Z,10.48
2024-03-12T06:31:50.071Z,7.90
2024-03-12T06:34:17.562Z,10.13
2024-03-12T06:36:45.043Z,9.52
2024-03-12T06:39:15.161Z,9.27
2024-03-12T06:41:42.746Z,16.95
2024-03-12T06:44:13.058Z,6.75
2024-03-12T06:46:41.262Z,6.57
2024-03-12T06:49:10.919Z,6.75
2024-03-12T06:51:38.609Z,6.57
2024-03-12T06:54:05.730Z,4.82
2024-03-12T06:56:35.592Z,6.22
2024-03-12T06:59:03.058Z,6.38
2024-03-12T07:01:32.701Z,4.90
2024-03-12T07:04:01.502Z,6.40
2024-03-12T07:06:29.245Z,4.70
2024-03-12T07:09:02.667Z,4.85
2024-03-12T07:11:30.472Z,4.80
2024-03-12T07:14:03.779Z,4.55
2024-03-12T07:16:32.209Z,4.13
2024-03-12T07:18:59.227Z,3.47
2024-03-12T07:21:28.233Z,4.22
2024-03-12T07:23:55.260Z,4.03
2024-03-12T07:26:23.408Z,4.47
2024-03-12T07:28:50.411Z,6.00
2024-03-12T07:31:17.811Z,5.75
2024-03-12T07:33:45.024Z,6.97
2024-03-12T07:36:12.524Z,4.60
2024-03-12T07:38:39.810Z,5.55
2024-03-12T07:41:10.534Z,5.40
2024-03-12T07:43:37.545Z,4.88
2024-03-12T07:46:04.915Z,4.40
2024-03-12T07:48:32.056Z,4.57
2024-03-12T07:51:01.947Z,4.35
2024-03-12T07:53:31.262Z,4.47
2024-03-12T07:56:02.455Z,3.50
2024-03-12T07:58:30.344Z,4.38
2024-03-12T08:00:57.945Z,6.60
2024-03-12T08:05:52.620Z,3.23
2024-03-12T08:08:20.423Z,4.05
2024-03-12T08:10:47.751Z,5.85
2024-03-12T08:13:16.089Z,4.25
2024-03-12T08:15:43.516Z,8.80
2024-03-12T08:18:17.668Z,5.53
2024-03-12T08:20:49.030Z,3.97
2024-03-12T08:23:16.507Z,7.20
2024-03-12T08:25:55.464Z,3.63
2024-03-12T08:28:26.732Z,4.65
2024-03-12T08:30:57.592Z,6.93
2024-03-12T08:33:26.834Z,3.80
2024-03-12T08:35:55.769Z,3.10
2024-03-12T08:38:23.040Z,4.60
2024-03-12T08:40:50.909Z,3.90
2024-03-12T08:43:17.846Z,3.97
2024-03-12T08:45:46.037Z,3.42
2024-03-12T08:48:13.416Z,4.03
2024-03-12T08:50:40.764Z,3.72
2024-03-12T08:53:08.529Z,4.00
2024-03-12T08:55:36.604Z,11.07
2024-03-12T08:58:03.837Z,3.33
2024-03-12T09:00:31.236Z,3.95
2024-03-12T09:02:58.422Z,5.30
2024-03-12T09:05:25.796Z,3.78
2024-03-12T09:07:52.893Z,4.67
2024-03-12T09:10:20.426Z,3.60
2024-03-12T09:12:48.369Z,3.42
2024-03-12T09:15:15.674Z,4.70
2024-03-12T09:17:42.889Z,5.68
2024-03-12T09:20:13.571Z,3.73
2024-03-12T09:22:41.152Z,3.60
2024-03-12T09:25:09.916Z,3.63
2024-03-12T09:27:37.366Z,3.78
2024-03-12T09:30:06.878Z,4.07
2024-03-12T09:32:35.470Z,4.37
2024-03-12T09:35:05.964Z,3.97
2024-03-12T09:37:37.519Z,4.95
2024-03-12T09:40:07.269Z,5.03
2024-03-12T09:42:39.496Z,4.65
2024-03-12T09:45:10.368Z,4.43
2024-03-12T09:47:38.292Z,4.78
2024-03-12T09:50:12.987Z,9.70
2024-03-12T09:52:40.640Z,9.70
2024-03-12T09:55:12.621Z,6.35
2024-03-12T09:57:39.792Z,11.43
2024-03-12T10:00:13.926Z,6.15
2024-03-12T10:02:40.969Z,5.53
2024-03-12T10:05:11.430Z,5.05
2024-03-12T10:08:10.628Z,6.22
2024-03-12T10:10:41.868Z,6.27
2024-03-12T10:13:19.430Z,7.00
2024-03-12T10:15:55.274Z,5.13
2024-03-12T10:18:22.516Z,7.10
2024-03-12T10:20:55.894Z,6.03
2024-03-12T10:23:28.024Z,7.20
2024-03-12T10:26:11.221Z,8.05
2024-03-12T10:28:39.899Z,8.95
2024-03-12T10:31:11.078Z,7.90
2024-03-12T10:33:42.120Z,6.80
2024-03-12T10:36:13.651Z,5.27
2024-03-12T10:38:41.851Z,7.13
2024-03-12T10:41:22.498Z,6.88
2024-03-12T10:43:51.806Z,5.07
2024-03-12T10:46:21.091Z,6.18
2024-03-12T10:48:48.983Z,6.40
2024-03-12T10:51:19.009Z,8.30
2024-03-12T10:53:53.139Z,6.57
2024-03-12T10:56:21.244Z,6.80
2024-03-12T10:58:50.150Z,6.35
2024-03-12T11:01:21.058Z,8.63
2024-03-12T11:03:57.866Z,6.88
2024-03-12T11:06:26.862Z,7.03
2024-03-12T11:08:56.197Z,8.45
2024-03-12T11:11:24.725Z,7.40
2024-03-12T11:13:52.656Z,7.37
2024-03-12T11:16:21.592Z,7.15
2024-03-12T11:18:50.026Z,7.00
2024-03-12T11:21:25.407Z,9.35
2024-03-12T11:23:57.756Z,11.88
2024-03-12T11:29:01.024Z,12.30
2024-03-12T11:31:40.901Z,10.15
2024-03-12T11:34:08.543Z,11.02
2024-03-12T11:36:41.890Z,9.73
2024-03-12T11:39:14.031Z,11.60
2024-03-12T11:42:01.557Z,7.55
2024-03-12T11:44:45.367Z,9.27
2024-03-12T11:47:35.268Z,7.35
2024-03-12T11:50:09.271Z,9.55
2024-03-12T11:52:38.601Z,9.90
2024-03-12T11:55:06.352Z,8.93
2024-03-12T11:57:34.062Z,9.73
2024-03-12T12:00:01.419Z,9.65
2024-03-12T12:02:29.474Z,8.90
2024-03-12T12:04:57.551Z,7.73
2024-03-12T12:07:27.083Z,7.97
2024-03-12T12:09:54.643Z,9.45
2024-03-12T12:12:22.261Z,12.05
2024-03-12T12:14:49.645Z,8.90
2024-03-12T12:17:24.709Z,8.43
2024-03-12T12:20:18.040Z,7.35
2024-03-12T12:22:51.463Z,9.57
2024-03-12T12:25:20.391Z,9.23
2024-03-12T12:27:48.461Z,7.93
2024-03-12T12:30:18.842Z,9.53
2024-03-12T12:32:46.792Z,8.60
2024-03-12T12:35:15.551Z,9.15
2024-03-12T12:37:47.163Z,8.82
2024-03-12T12:40:18.821Z,7.40
2024-03-12T12:42:47.290Z,9.17
2024-03-12T12:45:17.768Z,9.27
2024-03-12T12:47:51.637Z,9.27
2024-03-12T12:50:31.813Z,9.57
2024-03-12T12:53:01.385Z,9.18
2024-03-12T12:55:29.466Z,8.83
2024-03-12T12:58:04.365Z,11.25
2024-03-12T13:00:38.931Z,9.88
2024-03-12T13:03:18.039Z,9.32
2024-03-12T13:05:46.810Z,9.85
2024-03-12T13:08:43.979Z,10.40
2024-03-12T13:11:11.273Z,9.35
2024-03-12T13:13:42.568Z,8.98
2024-03-12T13:16:11.990Z,14.60
2024-03-12T13:18:41.330Z,7.97
2024-03-12T13:21:08.827Z,12.40
2024-03-12T13:23:37.825Z,7.07
2024-03-12T13:26:05.354Z,9.38
2024-03-12T13:28:32.619Z,9.18
2024-03-12T13:30:59.630Z,10.35
2024-03-12T13:33:27.608Z,10.40
2024-03-12T13:35:57.036Z,9.23
2024-03-12T13:38:24.660Z,9.23
2024-03-12T13:40:51.989Z,10.30
2024-03-12T13:43:19.548Z,11.57
2024-03-12T13:45:47.803Z,11.33
2024-03-12T13:48:17.361Z,12.05
2024-03-12T13:50:44.962Z,15.95
2024-03-12T13:53:12.346Z,11.60
2024-03-12T13:55:39.387Z,12.65
2024-03-12T13:58:07.219Z,11.90
2024-03-12T14:00:34.433Z,11.48
2024-03-12T14:03:01.768Z,9.35
2024-03-12T14:05:29.638Z,12.93
2024-03-12T14:07:56.934Z,11.02
2024-03-12T14:10:24.141Z,10.03
2024-03-12T14:12:51.537Z,12.52
2024-03-12T14:15:18.596Z,12.90
2024-03-12T14:17:45.890Z,14.93
2024-03-12T14:20:15.849Z,9.38
2024-03-12T14:22:45.808Z,11.67
2024-03-12T14:25:13.711Z,12.68
2024-03-12T14:27:41.145Z,11.85
2024-03-12T14:30:09.851Z,13.68
2024-03-12T14:32:38.366Z,13.23
2024-03-12T14:35:06.415Z,11.93
2024-03-12T14:37:33.741Z,12.95
2024-03-12T14:40:01.465Z,11.77
2024-03-12T14:42:32.054Z,13.30
2024-03-12T14:44:59.043Z,14.32
2024-03-12T14:47:26.361Z,10.70
2024-03-12T14:49:54.260Z,12.98
2024-03-12T14:52:22.144Z,13.48
2024-03-12T14:54:50.613Z,13.90
2024-03-12T14:57:18.846Z,13.90
2024-03-12T14:59:47.030Z,11.57
2024-03-12T15:02:16.052Z,14.35
2024-03-12T15:04:44.886Z,13.70
2024-03-12T15:07:14.626Z,17.73
2024-03-12T15:09:45.323Z,25.15
2024-03-12T15:12:14.316Z,16.60
2024-03-12T15:14:41.595Z,15.27
2024-03-12T15:17:09.196Z,14.60
2024-03-12T15:19:36.943Z,19.23
2024-03-12T15:22:06.663Z,19.00
2024-03-12T15:24:39.819Z,15.67
2024-03-12T15:27:08.822Z,20.63
2024-03-12T15:29:36.176Z,21.30
2024-03-12T15:32:04.044Z,20.08
2024-03-12T15:34:30.990Z,21.20
2024-03-12T15:36:58.455Z,20.57
2024-03-12T15:39:25.450Z,17.65
2024-03-12T15:41:52.941Z,14.18
2024-03-12T15:44:20.183Z,12.95
2024-03-12T15:46:48.736Z,10.55
2024-03-12T15:49:18.129Z,12.07
2024-03-12T15:51:46.582Z,12.25
2024-03-12T15:54:15.940Z,19.17
2024-03-12T15:56:45.675Z,17.25
2024-03-12T15:59:15.777Z,16.98
2024-03-12T16:01:45.026Z,15.00
2024-03-12T16:04:14.708Z,17.33
2024-03-12T16:06:43.078Z,20.83
2024-03-12T16:09:18.312Z,21.55
2024-03-12T16:11:45.624Z,18.20
2024-03-12T16:14:13.814Z,15.30
2024-03-12T16:16:41.175Z,19.20
2024-03-12T16:19:08.260Z,23.67
2024-03-12T16:21:35.724Z,16.27
2024-03-12T16:24:02.805Z,16.48
2024-03-12T16:26:30.425Z,17.33
2024-03-12T16:28:57.391Z,21.35
2024-03-12T16:31:25.176Z,16.08
2024-03-12T16:33:52.556Z,16.70
2024-03-12T16:36:21.550Z,18.38
2024-03-12T16:38:48.802Z,22.80
2024-03-12T16:41:16.434Z,24.65
2024-03-12T16:43:43.739Z,22.38
2024-03-12T16:46:11.521Z,20.08
2024-03-12T16:48:41.052Z,21.50
2024-03-12T16:51:08.753Z,24.50
2024-03-12T16:53:36.960Z,23.80
2024-03-12T16:56:04.577Z,24.45
2024-03-12T16:58:31.944Z,26.25
2024-03-12T17:01:00.578Z,24.23
2024-03-12T17:03:30.865Z,22.63
2024-03-12T17:05:59.113Z,25.27
2024-03-12T17:08:27.279Z,26.67
2024-03-12T17:10:55.132Z,27.52
2024-03-12T17:13:25.174Z,21.67
2024-03-12T17:15:55.139Z,25.23
2024-03-12T17:18:23.669Z,24.75
2024-03-12T17:20:55.793Z,54.20
2024-03-12T17:23:25.201Z,29.60
2024-03-12T17:25:54.908Z,38.35
2024-03-12T17:28:22.206Z,20.67
2024-03-12T17:30:51.308Z,17.23
2024-03-12T17:33:19.041Z,15.38
2024-03-12T17:35:48.774Z,16.05
2024-03-12T17:38:18.166Z,21.60
2024-03-12T17:40:48.285Z,16.47
2024-03-12T17:43:15.919Z,23.13
2024-03-12T17:45:43.636Z,26.38
2024-03-12T17:48:13.203Z,25.13
2024-03-12T17:50:40.901Z,25.65
2024-03-12T17:53:08.448Z,26.03
2024-03-12T17:55:36.200Z,24.33
2024-03-12T17:58:05.287Z,28.45
2024-03-12T18:00:34.743Z,21.13
2024-03-12T18:03:01.932Z,32.10
2024-03-12T18:05:29.671Z,23.73
2024-03-12T18:07:57.613Z,26.15
2024-03-12T18:10:27.177Z,22.70
2024-03-12T18:12:54.611Z,33.00
2024-03-12T18:15:22.118Z,28.13
2024-03-12T18:17:49.169Z,34.50
2024-03-12T18:20:28.984Z,34.17
2024-03-12T18:22:56.089Z,30.63
2024-03-12T18:25:23.352Z,39.30
2024-03-12T18:27:54.982Z,33.47
2024-03-12T18:30:22.751Z,41.83
2024-03-12T18:32:50.625Z,42.80
2024-03-12T18:35:20.169Z,46.17
2024-03-12T18:37:47.310Z,37.13
2024-03-12T18:40:19.840Z,36.85
2024-03-12T18:42:47.952Z,40.80
2024-03-12T18:45:19.623Z,35.92
2024-03-12T18:47:49.564Z,29.05
2024-03-12T18:50:18.508Z,21.63
2024-03-12T18:52:46.895Z,19.50
2024-03-12T18:55:18.348Z,22.53
2024-03-12T18:57:46.512Z,18.83
2024-03-12T19:00:21.552Z,19.23
2024-03-12T19:02:49.900Z,17.38
2024-03-12T19:05:21.876Z,25.23
2024-03-12T19:07:50.652Z,19.80
2024-03-12T19:10:20.024Z,19.23
2024-03-12T19:12:47.660Z,16.00
2024-03-12T19:15:22.313Z,14.02
2024-03-12T19:17:53.258Z,14.18
2024-03-12T19:20:21.356Z,14.80
2024-03-12T19:22:55.263Z,16.02
2024-03-12T19:25:23.774Z,17.02
2024-03-12T19:27:52.549Z,22.02
2024-03-12T19:30:20.765Z,20.75
2024-03-12T19:32:50.235Z,19.17
2024-03-12T19:35:19.984Z,24.13
2024-03-12T19:37:49.886Z,20.50
2024-03-12T19:40:35.184Z,30.52
2024-03-12T19:43:04.425Z,28.75
2024-03-12T19:45:35.037Z,25.20
2024-03-12T19:48:03.990Z,21.38
2024-03-12T19:50:32.748Z,26.60
2024-03-12T19:53:04.221Z,23.80
2024-03-12T19:55:40.630Z,23.33
2024-03-12T19:58:11.178Z,18.53
2024-03-12T20:00:39.965Z,16.35
2024-03-12T20:03:13.912Z,22.33
2024-03-12T20:05:42.650Z,16.45
2024-03-12T20:08:10.949Z,18.15
2024-03-12T20:10:38.530Z,14.93
2024-03-12T20:13:06.991Z,15.23
2024-03-12T20:15:38.494Z,14.82
2024-03-12T20:18:07.680Z,15.52
2024-03-12T20:20:38.843Z,14.57
2024-03-12T20:23:07.603Z,16.27
2024-03-12T20:25:36.008Z,14.05
2024-03-12T20:28:03.264Z,15.55
2024-03-12T20:30:31.258Z,25.58
2024-03-12T20:33:00.285Z,22.25
2024-03-12T20:35:29.257Z,24.57
2024-03-12T20:37:57.258Z,28.23
2024-03-12T20:40:29.248Z,23.77
2024-03-12T20:43:00.646Z,21.67
2024-03-12T20:45:30.482Z,21.48
2024-03-12T20:47:57.856Z,19.73
2024-03-12T20:50:25.552Z,22.25
2024-03-12T20:52:52.656Z,29.80
2024-03-12T20:55:20.547Z,24.13
2024-03-12T20:57:49.259Z,17.73
2024-03-12T21:00:20.400Z,43.83
2024-03-12T21:02:52.843Z,32.65
2024-03-12T21:05:20.622Z,24.73
2024-03-12T21:07:47.694Z,27.40
2024-03-12T21:10:15.169Z,18.33
2024-03-12T21:12:49.900Z,19.03
2024-03-12T21:15:19.841Z,24.10
2024-03-12T21:17:47.519Z,34.35
2024-03-12T21:20:41.325Z,20.15
2024-03-12T21:23:10.102Z,22.08
2024-03-12T21:25:37.520Z,20.10
2024-03-12T21:28:04.813Z,20.35
2024-03-12T21:30:33.097Z,29.02
2024-03-12T21:33:00.327Z,21.52
2024-03-12T21:35:27.795Z,23.10
2024-03-12T21:37:54.763Z,22.53
2024-03-12T21:40:24.237Z,22.08
2024-03-12T21:42:51.752Z,24.88
2024-03-12T21:45:20.598Z,22.90
2024-03-12T21:47:49.007Z,24.77
2024-03-12T21:50:17.657Z,21.70
2024-03-12T21:52:46.439Z,26.65
2024-03-12T21:55:14.810Z,27.67
2024-03-12T21:57:44.986Z,22.58
2024-03-12T22:00:20.628Z,25.48
2024-03-12T22:02:48.652Z,20.57
2024-03-12T22:05:17.475Z,23.50
2024-03-12T22:07:45.300Z,26.55
2024-03-12T22:10:13.941Z,22.40
2024-03-12T22:12:42.205Z,27.20
2024-03-12T22:15:13.250Z,19.37
2024-03-12T22:17:43.495Z,17.92
2024-03-12T22:20:16.585Z,23.42
2024-03-12T22:22:49.009Z,24.67
2024-03-12T22:25:17.966Z,22.10
2024-03-12T22:27:47.105Z,19.23
2024-03-12T22:30:18.074Z,18.55
2024-03-12T22:32:46.461Z,26.90
2024-03-12T22:35:15.111Z,21.67
2024-03-12T22:37:44.997Z,20.02
2024-03-12T22:40:14.098Z,16.77
2024-03-12T22:42:41.804Z,15.18
2024-03-12T22:45:12.892Z,20.70
2024-03-12T22:47:40.917Z,19.40
2024-03-12T22:50:09.441Z,18.67
2024-03-12T22:52:37.820Z,18.80
2024-03-12T22:55:05.991Z,15.52
2024-03-12T22:57:37.105Z,14.32
2024-03-12T23:00:16.343Z,18.60
2024-03-12T23:02:45.333Z,18.17
2024-03-12T23:05:13.273Z,14.20
2024-03-12T23:07:40.299Z,13.93
2024-03-12T23:10:08.704Z,19.02
2024-03-12T23:12:35.670Z,13.68
2024-03-12T23:15:03.108Z,12.70
2024-03-12T23:17:31.096Z,12.50
2024-03-12T23:20:00.888Z,14.82
2024-03-12T23:22:28.734Z,15.18
2024-03-12T23:24:56.134Z,16.50
2024-03-12T23:27:25.218Z,12.68
2024-03-12T23:29:52.512Z,16.20
2024-03-12T23:32:19.447Z,12.45
2024-03-12T23:34:47.064Z,14.93
2024-03-12T23:37:14.081Z,13.93
2024-03-12T23:39:41.707Z,16.08
2024-03-12T23:42:08.690Z,25.13
2024-03-12T23:44:36.439Z,22.38
2024-03-12T23:47:05.409Z,15.05
2024-03-12T23:49:33.970Z,16.38
2024-03-12T23:52:01.089Z,15.55
2024-03-12T23:54:28.691Z,22.83
2024-03-12T23:56:56.638Z,26.05
2024-03-12T23:59:25.344Z,21.55
